sensor_id;sensor_type;location;lat;lon;timestamp;pressure;altitude;pressure_sealevel;temperature;humidity
5814;BME280;2933;52.302;8.134;2023-01-25T00:04:51;102649.22;;;-1.09;100.00
5814;BME280;2933;52.302;8.134;2023-01-25T00:09:54;102645.00;;;-1.07;100.00
5814;BME280;2933;52.302;8.134;2023-01-25T00:14:56;102627.72;;;-1.14;100.00
5814;BME280;2933;52.302;8.134;2023-01-25T00:19:57;102630.28;;;-1.14;100.00
5814;BME280;2933;52.302;8.134;2023-01-25T00:25:00;102611.47;;;-1.15;100.00
5814;BME280;2933;52.302;8.134;2023-01-25T00:30:02;102607.78;;;-1.26;100.00
5814;BME280;2933;52.302;8.134;2023-01-25T00:35:06;102605.91;;;-0.93;100.00
5814;BME280;2933;52.302;8.134;2023-01-25T00:40:11;102609.25;;;-0.98;100.00
5814;BME280;2933;52.302;8.134;2023-01-25T00:45:13;102606.53;;;-1.05;100.00
5814;BME280;2933;52.302;8.134;2023-01-25T00:50:15;102599.38;;;-1.20;100.00
5814;BME280;2933;52.302;8.134;2023-01-25T00:55:18;102612.38;;;-1.11;100.00
5814;BME280;2933;52.302;8.134;2023-01-25T01:00:19;102617.34;;;-1.20;100.00
5814;BME280;2933;52.302;8.134;2023-01-25T01:05:21;102601.06;;;-1.21;100.00
5814;BME280;2933;52.302;8.134;2023-01-25T01:10:24;102594.91;;;-1.29;100.00
5814;BME280;2933;52.302;8.134;2023-01-25T01:15:25;102594.97;;;-1.26;100.00
5814;BME280;2933;52.302;8.134;2023-01-25T01:20:27;102592.41;;;-1.26;100.00
5814;BME280;2933;52.302;8.134;2023-01-25T01:25:31;102595.34;;;-1.09;100.00
5814;BME280;2933;52.302;8.134;2023-01-25T01:30:32;102592.75;;;-1.10;100.00
5814;BME280;2933;52.302;8.134;2023-01-25T01:35:34;102583.16;;;-1.19;100.00
5814;BME280;2933;52.302;8.134;2023-01-25T01:40:37;102592.53;;;-1.20;100.00
5814;BME280;2933;52.302;8.134;2023-01-25T01:45:52;102586.41;;;-1.26;100.00
5814;BME280;2933;52.302;8.134;2023-01-25T01:50:56;102584.00;;;-1.20;100.00
5814;BME280;2933;52.302;8.134;2023-01-25T01:56:03;102575.19;;;-1.32;100.00
5814;BME280;2933;52.302;8.134;2023-01-25T02:01:05;102574.59;;;-1.20;100.00
5814;BME280;2933;52.302;8.134;2023-01-25T02:06:12;102574.44;;;-1.26;100.00
5814;BME280;2933;52.302;8.134;2023-01-25T02:11:15;102578.75;;;-1.25;100.00
5814;BME280;2933;52.302;8.134;2023-01-25T02:16:21;102558.06;;;-1.33;100.00
5814;BME280;2933;52.302;8.134;2023-01-25T02:21:24;102585.88;;;-1.13;100.00
5814;BME280;2933;52.302;8.134;2023-01-25T02:26:27;102576.72;;;-1.00;100.00
5814;BME280;2933;52.302;8.134;2023-01-25T02:31:29;102566.56;;;-0.95;100.00
5814;BME280;2933;52.302;8.134;2023-01-25T02:36:32;102566.09;;;-1.17;100.00
5814;BME280;2933;52.302;8.134;2023-01-25T02:41:37;102555.81;;;-1.19;100.00
5814;BME280;2933;52.302;8.134;2023-01-25T02:46:40;102528.66;;;-1.09;100.00
5814;BME280;2933;52.302;8.134;2023-01-25T02:51:44;102533.16;;;-0.97;100.00
5814;BME280;2933;52.302;8.134;2023-01-25T02:56:48;102534.63;;;-1.08;100.00
5814;BME280;2933;52.302;8.134;2023-01-25T03:01:50;102518.56;;;-1.00;100.00
5814;BME280;2933;52.302;8.134;2023-01-25T03:06:51;102519.22;;;-1.10;100.00
5814;BME280;2933;52.302;8.134;2023-01-25T03:11:54;102507.50;;;-1.40;100.00
5814;BME280;2933;52.302;8.134;2023-01-25T03:16:56;102505.66;;;-1.04;100.00
5814;BME280;2933;52.302;8.134;2023-01-25T03:21:57;102504.06;;;-0.98;100.00
5814;BME280;2933;52.302;8.134;2023-01-25T03:27:00;102497.00;;;-1.09;100.00
5814;BME280;2933;52.302;8.134;2023-01-25T03:32:12;102491.63;;;-1.22;100.00
5814;BME280;2933;52.302;8.134;2023-01-25T03:37:14;102471.81;;;-1.29;100.00
5814;BME280;2933;52.302;8.134;2023-01-25T03:42:18;102474.88;;;-1.04;100.00
5814;BME280;2933;52.302;8.134;2023-01-25T03:47:20;102476.41;;;-1.12;100.00
5814;BME280;2933;52.302;8.134;2023-01-25T03:52:36;102469.44;;;-1.20;100.00
5814;BME280;2933;52.302;8.134;2023-01-25T03:57:47;102463.19;;;-1.33;100.00
5814;BME280;2933;52.302;8.134;2023-01-25T04:02:49;102457.13;;;-1.38;100.00
5814;BME280;2933;52.302;8.134;2023-01-25T04:07:50;102443.63;;;-1.29;100.00
5814;BME280;2933;52.302;8.134;2023-01-25T04:12:53;102447.06;;;-1.27;100.00
5814;BME280;2933;52.302;8.134;2023-01-25T04:17:55;102440.47;;;-1.14;100.00
5814;BME280;2933;52.302;8.134;2023-01-25T04:22:56;102448.28;;;-1.08;100.00
5814;BME280;2933;52.302;8.134;2023-01-25T04:27:59;102438.78;;;-1.12;100.00
5814;BME280;2933;52.302;8.134;2023-01-25T04:33:02;102442.91;;;-1.22;100.00
5814;BME280;2933;52.302;8.134;2023-01-25T04:38:04;102453.63;;;-1.41;100.00
5814;BME280;2933;52.302;8.134;2023-01-25T04:43:07;102440.94;;;-1.34;100.00
5814;BME280;2933;52.302;8.134;2023-01-25T04:48:10;102427.88;;;-1.48;100.00
5814;BME280;2933;52.302;8.134;2023-01-25T04:53:12;102437.03;;;-1.59;100.00
5814;BME280;2933;52.302;8.134;2023-01-25T04:58:15;102404.44;;;-1.65;100.00
5814;BME280;2933;52.302;8.134;2023-01-25T05:03:17;102432.34;;;-1.36;100.00
5814;BME280;2933;52.302;8.134;2023-01-25T05:08:18;102433.09;;;-1.43;100.00
5814;BME280;2933;52.302;8.134;2023-01-25T05:13:21;102435.53;;;-1.49;100.00
5814;BME280;2933;52.302;8.134;2023-01-25T05:18:23;102438.28;;;-1.38;100.00
5814;BME280;2933;52.302;8.134;2023-01-25T05:23:24;102428.47;;;-1.58;100.00
5814;BME280;2933;52.302;8.134;2023-01-25T05:28:27;102428.75;;;-1.46;100.00
5814;BME280;2933;52.302;8.134;2023-01-25T05:33:28;102417.72;;;-1.43;100.00
5814;BME280;2933;52.302;8.134;2023-01-25T05:38:30;102411.91;;;-1.33;100.00
5814;BME280;2933;52.302;8.134;2023-01-25T05:43:33;102408.75;;;-1.19;100.00
5814;BME280;2933;52.302;8.134;2023-01-25T05:48:34;102411.38;;;-1.15;100.00
5814;BME280;2933;52.302;8.134;2023-01-25T05:53:36;102409.50;;;-1.25;100.00
5814;BME280;2933;52.302;8.134;2023-01-25T05:58:39;102403.47;;;-1.27;100.00
5814;BME280;2933;52.302;8.134;2023-01-25T06:03:41;102406.81;;;-1.31;100.00
5814;BME280;2933;52.302;8.134;2023-01-25T06:08:42;102412.41;;;-1.51;100.00
5814;BME280;2933;52.302;8.134;2023-01-25T06:13:46;102404.81;;;-1.46;100.00
5814;BME280;2933;52.302;8.134;2023-01-25T06:18:53;102415.47;;;-1.24;100.00
5814;BME280;2933;52.302;8.134;2023-01-25T06:23:55;102418.78;;;-1.32;100.00
5814;BME280;2933;52.302;8.134;2023-01-25T06:28:58;102389.28;;;-1.54;100.00
5814;BME280;2933;52.302;8.134;2023-01-25T06:33:59;102404.38;;;-1.25;100.00
5814;BME280;2933;52.302;8.134;2023-01-25T06:39:08;102403.56;;;-1.22;100.00
5814;BME280;2933;52.302;8.134;2023-01-25T06:44:11;102409.50;;;-1.23;100.00
5814;BME280;2933;52.302;8.134;2023-01-25T06:49:13;102405.78;;;-1.39;100.00
5814;BME280;2933;52.302;8.134;2023-01-25T06:54:15;102384.38;;;-1.43;100.00
5814;BME280;2933;52.302;8.134;2023-01-25T06:59:17;102409.03;;;-1.48;100.00
5814;BME280;2933;52.302;8.134;2023-01-25T07:04:19;102405.63;;;-1.47;100.00
5814;BME280;2933;52.302;8.134;2023-01-25T07:09:20;102399.94;;;-1.34;100.00
5814;BME280;2933;52.302;8.134;2023-01-25T07:14:24;102393.19;;;-1.28;100.00
5814;BME280;2933;52.302;8.134;2023-01-25T07:19:26;102397.47;;;-1.29;100.00
5814;BME280;2933;52.302;8.134;2023-01-25T07:24:28;102399.66;;;-1.48;100.00
5814;BME280;2933;52.302;8.134;2023-01-25T07:29:31;102390.34;;;-1.44;100.00
5814;BME280;2933;52.302;8.134;2023-01-25T07:34:32;102392.91;;;-1.44;100.00
5814;BME280;2933;52.302;8.134;2023-01-25T07:39:34;102387.53;;;-1.56;100.00
5814;BME280;2933;52.302;8.134;2023-01-25T07:44:37;102345.38;;;-1.71;100.00
5814;BME280;2933;52.302;8.134;2023-01-25T07:49:39;102372.53;;;-1.36;100.00
5814;BME280;2933;52.302;8.134;2023-01-25T07:54:41;102358.75;;;-1.43;100.00
5814;BME280;2933;52.302;8.134;2023-01-25T07:59:44;102359.34;;;-1.56;100.00
5814;BME280;2933;52.302;8.134;2023-01-25T08:04:45;102350.81;;;-1.55;100.00
5814;BME280;2933;52.302;8.134;2023-01-25T08:09:47;102360.44;;;-1.42;100.00
5814;BME280;2933;52.302;8.134;2023-01-25T08:14:50;102340.72;;;-1.46;100.00
5814;BME280;2933;52.302;8.134;2023-01-25T08:19:52;102360.63;;;-1.34;100.00
5814;BME280;2933;52.302;8.134;2023-01-25T08:24:53;102365.88;;;-1.26;100.00
5814;BME280;2933;52.302;8.134;2023-01-25T08:29:57;102362.53;;;-1.22;100.00
5814;BME280;2933;52.302;8.134;2023-01-25T08:34:58;102355.63;;;-1.25;100.00
5814;BME280;2933;52.302;8.134;2023-01-25T08:40:00;102348.78;;;-1.24;100.00
5814;BME280;2933;52.302;8.134;2023-01-25T08:45:03;102354.75;;;-1.27;100.00
5814;BME280;2933;52.302;8.134;2023-01-25T08:50:06;102340.22;;;-1.26;100.00
5814;BME280;2933;52.302;8.134;2023-01-25T08:55:08;102340.16;;;-1.30;100.00
5814;BME280;2933;52.302;8.134;2023-01-25T09:00:13;102338.16;;;-1.46;100.00
5814;BME280;2933;52.302;8.134;2023-01-25T09:05:15;102334.56;;;-1.54;100.00
5814;BME280;2933;52.302;8.134;2023-01-25T09:10:16;102332.31;;;-1.39;100.00
5814;BME280;2933;52.302;8.134;2023-01-25T09:15:19;102322.06;;;-1.39;100.00
5814;BME280;2933;52.302;8.134;2023-01-25T09:20:22;102315.28;;;-1.37;100.00
5814;BME280;2933;52.302;8.134;2023-01-25T09:25:24;102311.69;;;-1.47;100.00
5814;BME280;2933;52.302;8.134;2023-01-25T09:30:27;102306.94;;;-1.71;100.00
5814;BME280;2933;52.302;8.134;2023-01-25T09:35:28;102300.25;;;-1.63;100.00
5814;BME280;2933;52.302;8.134;2023-01-25T09:40:34;102283.28;;;-1.56;100.00
5814;BME280;2933;52.302;8.134;2023-01-25T09:45:40;102299.00;;;-1.39;100.00
5814;BME280;2933;52.302;8.134;2023-01-25T09:50:57;102296.56;;;-1.31;100.00
5814;BME280;2933;52.302;8.134;2023-01-25T09:56:09;102291.19;;;-1.45;100.00
5814;BME280;2933;52.302;8.134;2023-01-25T10:01:21;102283.47;;;-1.47;100.00
5814;BME280;2933;52.302;8.134;2023-01-25T10:06:35;102277.22;;;-1.61;100.00
5814;BME280;2933;52.302;8.134;2023-01-25T10:11:37;102259.91;;;-1.73;100.00
5814;BME280;2933;52.302;8.134;2023-01-25T10:16:49;102281.88;;;-1.40;100.00
5814;BME280;2933;52.302;8.134;2023-01-25T10:22:00;102271.31;;;-1.57;100.00
5814;BME280;2933;52.302;8.134;2023-01-25T10:27:14;102263.63;;;-1.57;100.00
5814;BME280;2933;52.302;8.134;2023-01-25T10:32:25;102244.84;;;-1.56;100.00
5814;BME280;2933;52.302;8.134;2023-01-25T10:37:30;102231.44;;;-1.41;100.00
5814;BME280;2933;52.302;8.134;2023-01-25T10:42:37;102237.69;;;-1.25;100.00
5814;BME280;2933;52.302;8.134;2023-01-25T10:47:45;102227.00;;;-1.50;100.00
5814;BME280;2933;52.302;8.134;2023-01-25T10:52:56;102242.94;;;-1.68;100.00
5814;BME280;2933;52.302;8.134;2023-01-25T10:57:58;102243.47;;;-1.84;100.00
5814;BME280;2933;52.302;8.134;2023-01-25T11:03:01;102193.59;;;-2.05;100.00
5814;BME280;2933;52.302;8.134;2023-01-25T11:08:24;102213.75;;;-1.74;100.00
5814;BME280;2933;52.302;8.134;2023-01-25T11:13:28;102198.50;;;-1.67;100.00
5814;BME280;2933;52.302;8.134;2023-01-25T11:18:32;102196.22;;;-1.53;100.00
5814;BME280;2933;52.302;8.134;2023-01-25T11:23:34;102179.19;;;-1.49;100.00
5814;BME280;2933;52.302;8.134;2023-01-25T11:28:36;102149.81;;;-1.67;100.00
5814;BME280;2933;52.302;8.134;2023-01-25T11:33:39;102158.41;;;-1.65;100.00
5814;BME280;2933;52.302;8.134;2023-01-25T11:38:49;102138.69;;;-1.70;100.00
5814;BME280;2933;52.302;8.134;2023-01-25T11:44:12;102136.22;;;-1.64;100.00
5814;BME280;2933;52.302;8.134;2023-01-25T11:49:27;102104.66;;;-1.61;100.00
5814;BME280;2933;52.302;8.134;2023-01-25T11:54:43;102104.75;;;-1.55;100.00
5814;BME280;2933;52.302;8.134;2023-01-25T11:59:55;102105.69;;;-1.49;100.00
5814;BME280;2933;52.302;8.134;2023-01-25T12:05:14;102090.06;;;-1.66;100.00
5814;BME280;2933;52.302;8.134;2023-01-25T12:10:25;102078.13;;;-1.64;100.00
5814;BME280;2933;52.302;8.134;2023-01-25T12:15:53;102071.25;;;-1.68;100.00
5814;BME280;2933;52.302;8.134;2023-01-25T12:21:03;102049.88;;;-1.67;100.00
5814;BME280;2933;52.302;8.134;2023-01-25T12:26:20;102024.25;;;-1.68;100.00
5814;BME280;2933;52.302;8.134;2023-01-25T12:31:29;102022.22;;;-1.89;100.00
5814;BME280;2933;52.302;8.134;2023-01-25T12:36:37;102008.72;;;-1.79;100.00
5814;BME280;2933;52.302;8.134;2023-01-25T12:41:45;101972.81;;;-1.82;100.00
5814;BME280;2933;52.302;8.134;2023-01-25T12:46:54;101987.47;;;-1.72;100.00
5814;BME280;2933;52.302;8.134;2023-01-25T12:52:04;101979.94;;;-1.63;100.00
5814;BME280;2933;52.302;8.134;2023-01-25T12:57:14;101957.03;;;-1.47;100.00
5814;BME280;2933;52.302;8.134;2023-01-25T13:02:49;101926.13;;;-1.61;100.00
5814;BME280;2933;52.302;8.134;2023-01-25T13:08:02;101932.31;;;-1.42;100.00
5814;BME280;2933;52.302;8.134;2023-01-25T13:13:19;101932.72;;;-1.80;100.00
5814;BME280;2933;52.302;8.134;2023-01-25T13:18:39;101922.66;;;-1.65;100.00
5814;BME280;2933;52.302;8.134;2023-01-25T13:23:43;101923.72;;;-1.49;100.00
5814;BME280;2933;52.302;8.134;2023-01-25T13:28:47;101917.00;;;-1.40;100.00
5814;BME280;2933;52.302;8.134;2023-01-25T13:33:48;101903.31;;;-1.39;100.00
5814;BME280;2933;52.302;8.134;2023-01-25T13:38:51;101905.75;;;-1.50;100.00
5814;BME280;2933;52.302;8.134;2023-01-25T13:44:11;101904.81;;;-1.57;100.00
5814;BME280;2933;52.302;8.134;2023-01-25T13:49:20;101893.88;;;-1.43;100.00
5814;BME280;2933;52.302;8.134;2023-01-25T13:54:25;101882.53;;;-1.64;100.00
5814;BME280;2933;52.302;8.134;2023-01-25T13:59:27;101895.38;;;-1.59;100.00
5814;BME280;2933;52.302;8.134;2023-01-25T14:04:29;101893.56;;;-1.68;100.00
5814;BME280;2933;52.302;8.134;2023-01-25T14:09:34;101891.22;;;-1.51;100.00
5814;BME280;2933;52.302;8.134;2023-01-25T14:14:37;101862.81;;;-1.70;100.00
5814;BME280;2933;52.302;8.134;2023-01-25T14:19:39;101885.94;;;-1.62;100.00
5814;BME280;2933;52.302;8.134;2023-01-25T14:24:44;101885.19;;;-1.56;100.00
5814;BME280;2933;52.302;8.134;2023-01-25T14:29:47;101879.25;;;-1.52;100.00
5814;BME280;2933;52.302;8.134;2023-01-25T14:34:49;101864.75;;;-1.49;100.00
5814;BME280;2933;52.302;8.134;2023-01-25T14:39:52;101862.13;;;-1.53;100.00
5814;BME280;2933;52.302;8.134;2023-01-25T14:44:54;101863.44;;;-1.88;100.00
5814;BME280;2933;52.302;8.134;2023-01-25T14:55:31;101855.59;;;-2.00;100.00
5814;BME280;2933;52.302;8.134;2023-01-25T15:00:33;101843.47;;;-2.14;100.00
5814;BME280;2933;52.302;8.134;2023-01-25T15:05:35;101838.56;;;-1.97;100.00
5814;BME280;2933;52.302;8.134;2023-01-25T15:10:49;101822.22;;;-2.06;100.00
5814;BME280;2933;52.302;8.134;2023-01-25T15:15:53;101828.06;;;-2.15;100.00
5814;BME280;2933;52.302;8.134;2023-01-25T15:20:57;101836.81;;;-2.01;100.00
5814;BME280;2933;52.302;8.134;2023-01-25T15:26:00;101828.88;;;-2.19;100.00
5814;BME280;2933;52.302;8.134;2023-01-25T15:31:03;101827.22;;;-2.17;100.00
5814;BME280;2933;52.302;8.134;2023-01-25T15:36:05;101819.53;;;-2.17;100.00
5814;BME280;2933;52.302;8.134;2023-01-25T15:41:08;101798.16;;;-2.18;100.00
5814;BME280;2933;52.302;8.134;2023-01-25T15:46:14;101812.72;;;-2.15;100.00
5814;BME280;2933;52.302;8.134;2023-01-25T15:51:17;101808.69;;;-1.98;100.00
5814;BME280;2933;52.302;8.134;2023-01-25T15:56:23;101809.22;;;-2.22;100.00
5814;BME280;2933;52.302;8.134;2023-01-25T16:01:28;101819.63;;;-2.11;100.00
5814;BME280;2933;52.302;8.134;2023-01-25T16:06:36;101794.78;;;-2.17;100.00
5814;BME280;2933;52.302;8.134;2023-01-25T16:11:40;101793.13;;;-2.13;100.00
5814;BME280;2933;52.302;8.134;2023-01-25T16:16:44;101778.50;;;-2.20;100.00
5814;BME280;2933;52.302;8.134;2023-01-25T16:21:46;101793.03;;;-2.18;100.00
5814;BME280;2933;52.302;8.134;2023-01-25T16:26:53;101783.78;;;-2.08;100.00
5814;BME280;2933;52.302;8.134;2023-01-25T16:31:55;101789.13;;;-1.89;100.00
5814;BME280;2933;52.302;8.134;2023-01-25T16:36:57;101771.09;;;-1.99;100.00
5814;BME280;2933;52.302;8.134;2023-01-25T16:42:00;101740.91;;;-2.26;100.00
5814;BME280;2933;52.302;8.134;2023-01-25T16:47:02;101780.31;;;-2.13;100.00
5814;BME280;2933;52.302;8.134;2023-01-25T16:52:04;101761.25;;;-2.35;100.00
5814;BME280;2933;52.302;8.134;2023-01-25T16:57:08;101756.97;;;-2.36;100.00
5814;BME280;2933;52.302;8.134;2023-01-25T17:02:10;101766.44;;;-2.32;100.00
5814;BME280;2933;52.302;8.134;2023-01-25T17:07:12;101735.41;;;-2.57;100.00
5814;BME280;2933;52.302;8.134;2023-01-25T17:12:15;101738.88;;;-2.50;100.00
5814;BME280;2933;52.302;8.134;2023-01-25T17:17:16;101761.22;;;-2.40;100.00
5814;BME280;2933;52.302;8.134;2023-01-25T17:22:18;101737.84;;;-2.65;100.00
5814;BME280;2933;52.302;8.134;2023-01-25T17:27:21;101765.31;;;-2.51;100.00
5814;BME280;2933;52.302;8.134;2023-01-25T17:32:23;101758.31;;;-2.65;100.00
5814;BME280;2933;52.302;8.134;2023-01-25T17:37:25;101750.91;;;-2.46;100.00
5814;BME280;2933;52.302;8.134;2023-01-25T17:42:27;101749.84;;;-2.59;100.00
5814;BME280;2933;52.302;8.134;2023-01-25T17:47:29;101751.31;;;-2.77;100.00
5814;BME280;2933;52.302;8.134;2023-01-25T17:52:32;101747.00;;;-2.79;100.00
5814;BME280;2933;52.302;8.134;2023-01-25T17:57:35;101731.75;;;-2.73;100.00
5814;BME280;2933;52.302;8.134;2023-01-25T18:02:36;101732.75;;;-2.63;100.00
5814;BME280;2933;52.302;8.134;2023-01-25T18:07:38;101718.22;;;-2.64;100.00
5814;BME280;2933;52.302;8.134;2023-01-25T18:12:40;101704.78;;;-2.49;100.00
5814;BME280;2933;52.302;8.134;2023-01-25T18:17:42;101704.03;;;-2.42;100.00
5814;BME280;2933;52.302;8.134;2023-01-25T18:22:43;101679.94;;;-2.60;100.00
5814;BME280;2933;52.302;8.134;2023-01-25T18:27:46;101691.06;;;-2.56;100.00
5814;BME280;2933;52.302;8.134;2023-01-25T18:32:48;101681.50;;;-2.68;100.00
5814;BME280;2933;52.302;8.134;2023-01-25T18:37:50;101660.97;;;-2.72;100.00
5814;BME280;2933;52.302;8.134;2023-01-25T18:42:52;101674.06;;;-2.52;100.00
5814;BME280;2933;52.302;8.134;2023-01-25T18:47:54;101658.66;;;-2.54;100.00
5814;BME280;2933;52.302;8.134;2023-01-25T18:52:56;101654.50;;;-2.47;100.00
5814;BME280;2933;52.302;8.134;2023-01-25T18:57:59;101654.31;;;-2.61;100.00
5814;BME280;2933;52.302;8.134;2023-01-25T19:03:03;101619.31;;;-2.64;100.00
5814;BME280;2933;52.302;8.134;2023-01-25T19:08:05;101634.78;;;-2.53;100.00
5814;BME280;2933;52.302;8.134;2023-01-25T19:13:07;101627.03;;;-2.62;100.00
5814;BME280;2933;52.302;8.134;2023-01-25T19:18:09;101629.53;;;-2.64;100.00
5814;BME280;2933;52.302;8.134;2023-01-25T19:23:10;101621.09;;;-2.58;100.00
5814;BME280;2933;52.302;8.134;2023-01-25T19:28:13;101616.13;;;-2.44;100.00
5814;BME280;2933;52.302;8.134;2023-01-25T19:33:15;101610.94;;;-2.49;100.00
5814;BME280;2933;52.302;8.134;2023-01-25T19:38:17;101609.28;;;-2.45;100.00
5814;BME280;2933;52.302;8.134;2023-01-25T19:43:20;101590.31;;;-2.67;100.00
5814;BME280;2933;52.302;8.134;2023-01-25T19:48:21;101597.25;;;-2.55;100.00
5814;BME280;2933;52.302;8.134;2023-01-25T19:53:23;101588.59;;;-2.64;100.00
5814;BME280;2933;52.302;8.134;2023-01-25T19:58:26;101592.66;;;-2.83;100.00
5814;BME280;2933;52.302;8.134;2023-01-25T20:03:28;101586.09;;;-2.59;100.00
5814;BME280;2933;52.302;8.134;2023-01-25T20:08:30;101578.44;;;-2.57;100.00
5814;BME280;2933;52.302;8.134;2023-01-25T20:13:33;101565.56;;;-2.65;100.00
5814;BME280;2933;52.302;8.134;2023-01-25T20:18:35;101554.56;;;-2.60;100.00
5814;BME280;2933;52.302;8.134;2023-01-25T20:23:38;101574.06;;;-2.68;100.00
5814;BME280;2933;52.302;8.134;2023-01-25T20:28:43;101549.88;;;-2.96;100.00
5814;BME280;2933;52.302;8.134;2023-01-25T20:33:44;101580.09;;;-2.63;100.00
5814;BME280;2933;52.302;8.134;2023-01-25T20:38:46;101584.34;;;-2.65;100.00
5814;BME280;2933;52.302;8.134;2023-01-25T20:43:51;101580.91;;;-2.65;100.00
5814;BME280;2933;52.302;8.134;2023-01-25T20:48:54;101563.72;;;-2.79;100.00
5814;BME280;2933;52.302;8.134;2023-01-25T20:53:56;101562.03;;;-2.77;100.00
5814;BME280;2933;52.302;8.134;2023-01-25T20:58:58;101561.88;;;-2.90;100.00
5814;BME280;2933;52.302;8.134;2023-01-25T21:04:01;101549.03;;;-2.95;100.00
5814;BME280;2933;52.302;8.134;2023-01-25T21:09:03;101549.03;;;-2.94;100.00
5814;BME280;2933;52.302;8.134;2023-01-25T21:14:06;101533.75;;;-2.90;100.00
5814;BME280;2933;52.302;8.134;2023-01-25T21:19:07;101538.13;;;-2.82;100.00
5814;BME280;2933;52.302;8.134;2023-01-25T21:24:09;101554.28;;;-2.83;100.00
5814;BME280;2933;52.302;8.134;2023-01-25T21:29:12;101551.09;;;-2.65;100.00
5814;BME280;2933;52.302;8.134;2023-01-25T21:34:14;101556.16;;;-2.68;100.00
5814;BME280;2933;52.302;8.134;2023-01-25T21:39:15;101535.56;;;-2.83;100.00
5814;BME280;2933;52.302;8.134;2023-01-25T21:44:18;101535.63;;;-2.74;100.00
5814;BME280;2933;52.302;8.134;2023-01-25T21:49:37;101522.00;;;-2.74;100.00
5814;BME280;2933;52.302;8.134;2023-01-25T21:54:56;101505.66;;;-2.87;100.00
5814;BME280;2933;52.302;8.134;2023-01-25T21:59:59;101515.13;;;-2.79;100.00
5814;BME280;2933;52.302;8.134;2023-01-25T22:05:01;101503.13;;;-2.86;100.00
5814;BME280;2933;52.302;8.134;2023-01-25T22:10:03;101501.44;;;-2.82;100.00
5814;BME280;2933;52.302;8.134;2023-01-25T22:15:07;101490.38;;;-2.83;100.00
5814;BME280;2933;52.302;8.134;2023-01-25T22:20:09;101501.56;;;-2.70;100.00
5814;BME280;2933;52.302;8.134;2023-01-25T22:25:11;101488.81;;;-2.67;100.00
5814;BME280;2933;52.302;8.134;2023-01-25T22:30:14;101474.25;;;-2.77;100.00
5814;BME280;2933;52.302;8.134;2023-01-25T22:35:16;101464.03;;;-2.72;100.00
5814;BME280;2933;52.302;8.134;2023-01-25T22:40:17;101463.25;;;-2.65;100.00
5814;BME280;2933;52.302;8.134;2023-01-25T22:45:20;101447.06;;;-2.61;100.00
5814;BME280;2933;52.302;8.134;2023-01-25T22:50:22;101445.41;;;-2.61;100.00
5814;BME280;2933;52.302;8.134;2023-01-25T22:55:23;101434.28;;;-2.63;100.00
5814;BME280;2933;52.302;8.134;2023-01-25T23:00:26;101430.88;;;-2.60;100.00
5814;BME280;2933;52.302;8.134;2023-01-25T23:05:28;101429.22;;;-2.60;100.00
5814;BME280;2933;52.302;8.134;2023-01-25T23:10:30;101414.53;;;-2.76;100.00
5814;BME280;2933;52.302;8.134;2023-01-25T23:15:32;101430.09;;;-2.54;100.00
5814;BME280;2933;52.302;8.134;2023-01-25T23:20:34;101416.47;;;-2.53;100.00
5814;BME280;2933;52.302;8.134;2023-01-25T23:25:37;101413.06;;;-2.49;100.00
5814;BME280;2933;52.302;8.134;2023-01-25T23:30:40;101407.19;;;-2.39;100.00
5814;BME280;2933;52.302;8.134;2023-01-25T23:35:41;101371.34;;;-2.42;100.00
5814;BME280;2933;52.302;8.134;2023-01-25T23:40:43;101377.38;;;-2.31;100.00
5814;BME280;2933;52.302;8.134;2023-01-25T23:45:45;101378.22;;;-2.30;100.00
5814;BME280;2933;52.302;8.134;2023-01-25T23:50:49;101371.47;;;-2.25;100.00
5814;BME280;2933;52.302;8.134;2023-01-25T23:55:51;101371.47;;;-2.25;100.00
